createdAt,value
2019-05-11T00:00:24.516Z,35.87
2019-05-11T00:02:55.791Z,37.90
2019-05-11T00:05:27.048Z,40.03
2019-05-11T00:07:58.272Z,40.40
2019-05-11T00:10:29.549Z,43.83
2019-05-11T00:13:00.836Z,39.43
2019-05-11T00:15:32.107Z,41.40
2019-05-11T00:18:03.330Z,41.40
2019-05-11T00:20:34.580Z,42.27
2019-05-11T00:23:05.862Z,39.67
2019-05-11T00:25:37.031Z,43.60
2019-05-11T00:28:08.240Z,39.87
2019-05-11T00:30:39.499Z,43.40
2019-05-11T00:33:10.726Z,39.63
2019-05-11T00:35:41.976Z,36.63
2019-05-11T00:38:13.171Z,37.73
2019-05-11T00:40:44.423Z,38.37
2019-05-11T00:43:15.670Z,37.90
2019-05-11T00:45:46.909Z,34.17
2019-05-11T00:48:18.058Z,37.17
2019-05-11T00:50:49.304Z,36.47
2019-05-11T00:53:20.411Z,36.50
2019-05-11T00:55:51.674Z,35.67
2019-05-11T00:58:22.903Z,38.20
2019-05-11T01:00:54.151Z,38.30
2019-05-11T01:03:25.305Z,36.87
2019-05-11T01:05:56.545Z,35.97
2019-05-11T01:08:27.830Z,35.63
2019-05-11T01:10:59.051Z,38.13
2019-05-11T01:13:30.314Z,38.63
2019-05-11T01:16:01.558Z,39.57
2019-05-11T01:18:32.878Z,36.50
2019-05-11T01:21:04.019Z,39.90
2019-05-11T01:23:35.094Z,39.57
2019-05-11T01:26:06.264Z,41.47
2019-05-11T01:28:37.441Z,38.83
2019-05-11T01:31:08.654Z,40.13
2019-05-11T01:33:39.827Z,41.70
2019-05-11T01:36:11.065Z,37.90
2019-05-11T01:38:42.358Z,37.33
2019-05-11T01:41:13.548Z,36.80
2019-05-11T01:43:44.687Z,37.00
2019-05-11T01:46:15.918Z,38.07
2019-05-11T01:48:47.180Z,36.60
2019-05-11T01:51:18.412Z,36.83
2019-05-11T01:53:49.622Z,34.30
2019-05-11T01:56:20.883Z,36.93
2019-05-11T01:58:52.082Z,34.60
2019-05-11T02:01:24.202Z,36.77
2019-05-11T02:03:55.558Z,35.43
2019-05-11T02:06:26.777Z,37.63
2019-05-11T02:08:58.020Z,36.30
2019-05-11T02:11:29.264Z,37.73
2019-05-11T02:14:00.463Z,36.33
2019-05-11T02:16:31.647Z,33.87
2019-05-11T02:19:02.914Z,36.67
2019-05-11T02:21:34.136Z,35.47
2019-05-11T02:24:05.382Z,35.87
2019-05-11T02:26:36.616Z,36.27
2019-05-11T02:29:07.717Z,36.63
2019-05-11T02:31:38.874Z,34.97
2019-05-11T02:34:10.146Z,34.80
2019-05-11T02:36:41.332Z,34.57
2019-05-11T02:39:12.549Z,35.50
2019-05-11T02:41:43.848Z,32.20
2019-05-11T02:44:15.126Z,34.20
2019-05-11T02:46:46.392Z,36.03
2019-05-11T02:49:17.594Z,34.07
2019-05-11T02:51:49.615Z,34.30
2019-05-11T02:54:21.683Z,35.00
2019-05-11T02:56:52.926Z,35.93
2019-05-11T02:59:24.122Z,36.10
2019-05-11T03:01:55.244Z,34.47
2019-05-11T03:04:26.523Z,37.00
2019-05-11T03:06:57.763Z,34.23
2019-05-11T03:09:28.980Z,35.47
2019-05-11T03:12:00.195Z,34.07
2019-05-11T03:14:31.483Z,35.10
2019-05-11T03:17:27.659Z,34.67
2019-05-11T03:19:58.844Z,35.20
2019-05-11T03:22:30.031Z,34.90
2019-05-11T03:25:01.250Z,37.20
2019-05-11T03:27:32.511Z,37.53
2019-05-11T03:30:03.729Z,36.83
2019-05-11T03:32:34.971Z,36.13
2019-05-11T03:35:06.527Z,35.17
2019-05-11T03:37:37.755Z,36.20
2019-05-11T03:40:09.605Z,38.57
2019-05-11T03:42:40.853Z,36.97
2019-05-11T03:45:12.593Z,38.17
2019-05-11T03:47:43.829Z,36.70
2019-05-11T03:50:15.467Z,36.70
2019-05-11T03:52:46.689Z,37.90
2019-05-11T03:55:18.465Z,38.77
2019-05-11T03:57:49.631Z,37.27
2019-05-11T04:00:21.126Z,38.20
2019-05-11T04:02:52.458Z,39.07
2019-05-11T04:05:23.662Z,39.77
2019-05-11T04:07:54.904Z,36.90
2019-05-11T04:10:26.121Z,39.23
2019-05-11T04:12:57.383Z,43.63
2019-05-11T04:15:28.578Z,41.83
2019-05-11T04:17:59.728Z,41.97
2019-05-11T04:20:30.996Z,42.87
2019-05-11T04:23:02.249Z,42.23
2019-05-11T04:25:33.502Z,40.47
2019-05-11T04:28:04.733Z,41.97
2019-05-11T04:30:35.983Z,41.80
2019-05-11T04:33:07.283Z,41.70
2019-05-11T04:35:38.527Z,44.13
2019-05-11T04:38:09.708Z,41.50
2019-05-11T04:40:40.966Z,42.40
2019-05-11T04:43:12.184Z,41.13
2019-05-11T04:45:43.357Z,41.47
2019-05-11T04:48:14.512Z,41.43
2019-05-11T04:50:45.738Z,38.97
2019-05-11T04:53:16.878Z,38.87
2019-05-11T04:55:48.126Z,40.20
2019-05-11T04:58:19.352Z,41.10
2019-05-11T05:00:50.626Z,43.30
2019-05-11T05:03:21.856Z,45.30
2019-05-11T05:05:53.089Z,41.43
2019-05-11T05:08:26.715Z,44.20
2019-05-11T05:10:58.589Z,42.67
2019-05-11T05:13:31.520Z,42.70
2019-05-11T05:16:02.877Z,42.83
2019-05-11T05:18:34.066Z,41.03
2019-05-11T05:21:05.241Z,40.90
2019-05-11T05:23:36.338Z,41.00
2019-05-11T05:26:07.495Z,43.20
2019-05-11T05:28:38.641Z,41.10
2019-05-11T05:31:09.914Z,42.10
2019-05-11T05:33:41.180Z,41.40
2019-05-11T05:36:12.377Z,43.70
2019-05-11T05:38:43.601Z,41.53
2019-05-11T05:41:14.866Z,39.80
2019-05-11T05:43:46.095Z,39.47
2019-05-11T05:46:17.375Z,38.43
2019-05-11T05:48:48.599Z,38.03
2019-05-11T05:51:19.875Z,41.57
2019-05-11T05:53:51.072Z,38.50
2019-05-11T05:56:22.325Z,38.57
2019-05-11T05:58:53.557Z,41.30
2019-05-11T06:01:24.734Z,37.53
2019-05-11T06:03:55.971Z,38.50
2019-05-11T06:06:27.205Z,39.10
2019-05-11T06:08:58.438Z,39.30
2019-05-11T06:11:29.666Z,39.60
2019-05-11T06:14:00.850Z,36.60
2019-05-11T06:16:32.165Z,36.70
2019-05-11T06:19:03.419Z,37.67
2019-05-11T06:21:34.588Z,37.80
2019-05-11T06:24:08.133Z,36.33
2019-05-11T06:26:38.767Z,36.27
2019-05-11T06:29:10.018Z,34.70
2019-05-11T06:31:41.311Z,36.90
2019-05-11T06:34:12.511Z,33.27
2019-05-11T06:36:43.812Z,32.93
2019-05-11T06:39:15.024Z,33.37
2019-05-11T06:41:46.299Z,31.40
2019-05-11T06:44:17.521Z,30.83
2019-05-11T06:46:48.789Z,29.83
2019-05-11T06:49:20.128Z,27.27
2019-05-11T06:51:52.367Z,28.13
2019-05-11T06:54:23.592Z,25.60
2019-05-11T06:56:54.869Z,27.43
2019-05-11T06:59:26.111Z,23.70
2019-05-11T07:01:57.380Z,23.70
2019-05-11T07:04:28.533Z,25.43
2019-05-11T07:06:59.800Z,25.17
2019-05-11T07:09:31.098Z,24.40
2019-05-11T07:12:02.503Z,23.93
2019-05-11T07:14:33.790Z,23.10
2019-05-11T07:17:05.053Z,22.10
2019-05-11T07:19:36.286Z,22.00
2019-05-11T07:22:07.533Z,21.33
2019-05-11T07:24:38.756Z,21.83
2019-05-11T07:27:09.993Z,21.37
2019-05-11T07:29:41.130Z,21.00
2019-05-11T07:32:22.079Z,19.83
2019-05-11T07:34:45.358Z,19.10
2019-05-11T07:37:18.501Z,17.40
2019-05-11T07:39:49.625Z,20.23
2019-05-11T07:42:20.925Z,17.80
2019-05-11T07:44:52.151Z,19.27
2019-05-11T07:47:23.427Z,20.43
2019-05-11T07:49:54.677Z,20.63
2019-05-11T07:52:25.937Z,20.77
2019-05-11T07:54:58.039Z,18.30
2019-05-11T07:57:29.452Z,18.70
2019-05-11T08:00:00.709Z,16.43
2019-05-11T08:02:32.500Z,18.80
2019-05-11T08:05:03.868Z,19.90
2019-05-11T08:07:35.127Z,19.80
2019-05-11T08:10:08.212Z,18.17
2019-05-11T08:12:39.643Z,20.27
2019-05-11T08:15:13.589Z,20.13
2019-05-11T08:17:44.097Z,17.60
2019-05-11T08:20:15.645Z,18.87
2019-05-11T08:22:48.194Z,17.40
2019-05-11T08:25:19.729Z,16.10
2019-05-11T08:27:50.956Z,19.63
2019-05-11T08:30:22.356Z,18.53
2019-05-11T08:32:53.610Z,19.60
2019-05-11T08:35:28.532Z,19.73
2019-05-11T08:37:58.471Z,18.37
2019-05-11T08:40:29.753Z,20.10
2019-05-11T08:43:01.013Z,21.87
2019-05-11T08:45:32.199Z,19.60
2019-05-11T08:48:03.549Z,17.90
2019-05-11T08:50:34.827Z,18.27
2019-05-11T08:53:08.430Z,19.10
2019-05-11T08:55:39.042Z,17.10
2019-05-11T08:58:10.335Z,18.83
2019-05-11T09:00:41.593Z,17.53
2019-05-11T09:03:12.892Z,17.60
2019-05-11T09:05:44.170Z,17.23
2019-05-11T09:08:15.436Z,17.10
2019-05-11T09:10:48.831Z,16.67
2019-05-11T09:13:19.561Z,16.77
2019-05-11T09:15:50.735Z,17.00
2019-05-11T09:18:22.011Z,16.20
2019-05-11T09:20:53.274Z,13.60
2019-05-11T09:23:34.726Z,14.97
2019-05-11T09:25:58.336Z,15.57
2019-05-11T09:28:29.969Z,14.60
2019-05-11T09:31:01.131Z,13.07
2019-05-11T09:33:32.378Z,13.03
2019-05-11T09:36:03.641Z,14.50
2019-05-11T09:38:34.920Z,13.53
2019-05-11T09:41:08.958Z,14.40
2019-05-11T09:43:39.086Z,14.40
2019-05-11T09:46:10.245Z,14.17
2019-05-11T09:48:41.404Z,13.40
2019-05-11T09:51:12.543Z,15.97
2019-05-11T09:53:48.291Z,15.03
2019-05-11T09:56:19.910Z,14.30
2019-05-11T09:58:51.141Z,13.63
2019-05-11T10:01:22.379Z,13.33
2019-05-11T10:03:53.530Z,13.50
2019-05-11T10:06:24.676Z,12.70
2019-05-11T10:08:57.923Z,14.17
2019-05-11T10:11:28.944Z,13.50
2019-05-11T10:14:00.077Z,12.33
2019-05-11T10:16:31.500Z,13.13
2019-05-11T10:19:02.675Z,13.40
2019-05-11T10:21:33.949Z,13.83
2019-05-11T10:24:05.138Z,14.00
2019-05-11T10:26:38.486Z,13.63
2019-05-11T10:29:09.241Z,12.27
2019-05-11T10:31:40.519Z,12.27
2019-05-11T10:34:11.706Z,11.77
2019-05-11T10:36:42.916Z,13.23
2019-05-11T10:39:14.116Z,11.97
2019-05-11T10:41:47.807Z,11.10
2019-05-11T10:44:18.887Z,9.83
2019-05-11T10:46:50.287Z,10.47
2019-05-11T10:49:21.832Z,11.10
2019-05-11T10:51:53.088Z,10.20
2019-05-11T10:54:24.272Z,9.40
2019-05-11T10:56:57.737Z,9.80
2019-05-11T10:59:28.538Z,9.40
2019-05-11T11:01:59.791Z,9.80
2019-05-11T11:04:30.943Z,8.33
2019-05-11T11:07:02.109Z,7.20
2019-05-11T11:09:33.265Z,9.07
2019-05-11T11:12:04.546Z,7.83
2019-05-11T11:14:37.717Z,8.33
2019-05-11T11:17:08.911Z,7.93
2019-05-11T11:19:40.068Z,9.00
2019-05-11T11:22:35.061Z,8.63
2019-05-11T11:24:44.133Z,8.90
2019-05-11T11:27:15.517Z,9.17
2019-05-11T11:29:47.581Z,10.37
2019-05-11T11:32:18.882Z,9.73
2019-05-11T11:34:50.144Z,11.33
2019-05-11T11:37:21.355Z,9.47
2019-05-11T11:39:52.585Z,9.93
2019-05-11T11:42:23.841Z,9.50
2019-05-11T11:44:54.999Z,10.73
2019-05-11T11:47:28.103Z,9.90
2019-05-11T11:49:59.061Z,7.57
2019-05-11T11:52:30.270Z,8.73
2019-05-11T11:55:01.398Z,8.93
2019-05-11T11:57:32.627Z,8.93
2019-05-11T12:00:03.916Z,8.77
2019-05-11T12:02:35.071Z,7.80
2019-05-11T12:05:08.849Z,9.13
2019-05-11T12:07:39.851Z,7.57
2019-05-11T12:10:13.196Z,7.83
2019-05-11T12:12:44.388Z,11.47
2019-05-11T12:15:17.782Z,9.60
2019-05-11T12:17:49.202Z,7.77
2019-05-11T12:20:20.521Z,8.20
2019-05-11T12:22:51.762Z,8.13
2019-05-11T12:25:22.965Z,8.20
2019-05-11T12:27:54.126Z,7.50
2019-05-11T12:30:25.532Z,8.00
2019-05-11T12:32:57.713Z,7.93
2019-05-11T12:35:29.661Z,6.20
2019-05-11T12:38:00.915Z,6.87
2019-05-11T12:40:32.144Z,6.27
2019-05-11T12:43:03.388Z,8.23
2019-05-11T12:45:34.611Z,7.77
2019-05-11T12:48:05.967Z,7.57
2019-05-11T12:50:37.888Z,7.00
2019-05-11T12:53:09.342Z,7.07
2019-05-11T12:55:40.562Z,7.17
2019-05-11T12:58:11.823Z,7.00
2019-05-11T13:00:43.081Z,7.60
2019-05-11T13:03:14.334Z,8.03
2019-05-11T13:05:45.577Z,7.33
2019-05-11T13:08:18.468Z,7.50
2019-05-11T13:10:49.624Z,6.33
2019-05-11T13:13:20.953Z,6.30
2019-05-11T13:15:52.113Z,6.10
2019-05-11T13:18:23.388Z,6.00
2019-05-11T13:20:54.461Z,6.93
2019-05-11T13:23:27.642Z,7.70
2019-05-11T13:25:58.661Z,7.10
2019-05-11T13:28:29.940Z,6.80
2019-05-11T13:31:01.165Z,6.03
2019-05-11T13:33:32.415Z,6.90
2019-05-11T13:36:03.662Z,6.67
2019-05-11T13:38:34.917Z,7.13
2019-05-11T13:41:07.960Z,6.67
2019-05-11T13:43:39.462Z,7.30
2019-05-11T13:46:10.997Z,8.43
2019-05-11T13:48:42.394Z,6.40
2019-05-11T13:51:13.635Z,8.00
2019-05-11T13:53:44.793Z,7.67
2019-05-11T13:56:17.643Z,7.50
2019-05-11T13:58:49.032Z,6.30
2019-05-11T14:01:20.185Z,7.10
2019-05-11T14:03:51.454Z,6.20
2019-05-11T14:06:23.157Z,6.70
2019-05-11T14:08:54.325Z,6.43
2019-05-11T14:11:25.453Z,7.40
2019-05-11T14:13:58.465Z,6.67
2019-05-11T14:16:29.611Z,8.67
2019-05-11T14:19:00.862Z,6.90
2019-05-11T14:21:32.262Z,8.93
2019-05-11T14:24:03.461Z,9.77
2019-05-11T14:26:34.603Z,7.70
2019-05-11T14:29:05.772Z,8.10
2019-05-11T14:31:38.832Z,7.17
2019-05-11T14:34:10.320Z,6.80
2019-05-11T14:36:41.448Z,8.10
2019-05-11T14:39:12.697Z,7.93
2019-05-11T14:41:43.918Z,7.53
2019-05-11T14:44:15.191Z,7.80
2019-05-11T14:46:47.792Z,7.07
2019-05-11T14:49:19.231Z,7.20
2019-05-11T14:51:50.477Z,6.73
2019-05-11T14:54:21.944Z,4.10
2019-05-11T14:56:53.239Z,4.10
2019-05-11T14:59:58.465Z,4.40
2019-05-11T15:02:49.072Z,4.50
2019-05-11T15:05:21.903Z,4.40
2019-05-11T15:07:53.308Z,4.43
2019-05-11T15:10:24.696Z,4.47
2019-05-11T15:12:55.984Z,3.90
2019-05-11T15:15:27.918Z,5.70
2019-05-11T15:17:59.821Z,4.83
2019-05-11T15:20:31.075Z,5.10
2019-05-11T15:23:02.287Z,6.63
2019-05-11T15:25:33.444Z,7.23
2019-05-11T15:28:04.704Z,4.17
2019-05-11T15:30:37.864Z,3.83
2019-05-11T15:33:08.867Z,3.40
2019-05-11T15:35:40.097Z,3.30
2019-05-11T15:38:11.436Z,3.90
2019-05-11T15:40:42.645Z,4.47
2019-05-11T15:43:13.853Z,3.40
2019-05-11T15:45:45.193Z,3.37
2019-05-11T15:48:18.483Z,3.20
2019-05-11T15:50:49.334Z,3.77
2019-05-11T15:53:20.629Z,3.23
2019-05-11T15:55:51.859Z,3.70
2019-05-11T15:58:23.004Z,3.10
2019-05-11T16:00:54.236Z,3.93
2019-05-11T16:03:25.586Z,4.20
2019-05-11T16:05:58.266Z,3.90
2019-05-11T16:08:29.608Z,3.60
2019-05-11T16:11:00.883Z,3.90
2019-05-11T16:13:32.213Z,2.80
2019-05-11T16:16:03.482Z,3.27
2019-05-11T16:18:34.790Z,3.27
2019-05-11T16:21:07.641Z,2.50
2019-05-11T16:23:39.085Z,1.97
2019-05-11T16:26:10.218Z,2.67
2019-05-11T16:28:41.487Z,2.43
2019-05-11T16:31:12.739Z,2.67
2019-05-11T16:33:44.075Z,2.37
2019-05-11T16:36:17.882Z,2.67
2019-05-11T16:38:48.425Z,2.63
2019-05-11T16:41:21.073Z,2.73
2019-05-11T16:43:52.542Z,1.93
2019-05-11T16:46:23.825Z,2.47
2019-05-11T16:48:55.035Z,2.10
2019-05-11T16:51:28.247Z,2.10
2019-05-11T16:53:59.143Z,2.13
2019-05-11T16:56:30.385Z,2.00
2019-05-11T16:59:01.617Z,1.93
2019-05-11T17:01:32.885Z,1.80
2019-05-11T17:04:04.540Z,1.93
2019-05-11T17:06:38.316Z,2.50
2019-05-11T17:09:09.129Z,1.90
2019-05-11T17:11:42.923Z,1.90
2019-05-11T17:14:14.245Z,1.90
2019-05-11T17:16:47.630Z,1.83
2019-05-11T17:19:19.910Z,1.90
2019-05-11T17:21:51.158Z,2.00
2019-05-11T17:24:22.326Z,2.27
2019-05-11T17:26:53.605Z,2.00
2019-05-11T17:29:24.889Z,1.70
2019-05-11T17:31:57.962Z,2.13
2019-05-11T17:34:29.085Z,2.00
2019-05-11T17:37:00.433Z,1.80
2019-05-11T17:39:31.727Z,1.87
2019-05-11T17:42:03.049Z,2.17
2019-05-11T17:44:37.859Z,2.70
2019-05-11T17:47:09.334Z,2.33
2019-05-11T17:49:56.422Z,2.33
2019-05-11T17:52:18.933Z,2.57
2019-05-11T17:54:55.063Z,2.30
2019-05-11T17:57:27.589Z,2.20
2019-05-11T17:59:58.308Z,3.00
2019-05-11T18:02:29.633Z,2.00
2019-05-11T18:05:00.822Z,1.40
2019-05-11T18:07:33.057Z,1.97
2019-05-11T18:10:04.477Z,2.80
2019-05-11T18:12:35.797Z,2.47
2019-05-11T18:15:09.209Z,2.20
2019-05-11T18:17:48.156Z,3.50
2019-05-11T18:20:21.951Z,1.80
2019-05-11T18:22:52.993Z,2.33
2019-05-11T18:25:24.168Z,1.90
2019-05-11T18:27:55.447Z,2.00
2019-05-11T18:30:29.100Z,2.43
2019-05-11T18:32:59.683Z,2.23
2019-05-11T18:35:30.845Z,2.10
2019-05-11T18:38:02.150Z,2.50
2019-05-11T18:40:33.408Z,2.20
2019-05-11T18:43:04.727Z,2.43
2019-05-11T18:45:38.198Z,1.83
2019-05-11T18:48:09.105Z,1.80
2019-05-11T18:50:40.361Z,1.73
2019-05-11T18:53:11.623Z,2.87
2019-05-11T18:55:42.890Z,2.20
2019-05-11T18:58:14.174Z,2.03
2019-05-11T19:00:45.432Z,2.30
2019-05-11T19:03:19.025Z,2.17
2019-05-11T19:05:49.622Z,3.87
2019-05-11T19:08:20.907Z,2.33
2019-05-11T19:10:52.188Z,3.20
2019-05-11T19:13:23.479Z,1.93
2019-05-11T19:15:54.693Z,1.73
2019-05-11T19:18:27.996Z,1.80
2019-05-11T19:20:58.889Z,1.83
2019-05-11T19:23:30.156Z,1.60
2019-05-11T19:26:01.444Z,1.47
2019-05-11T19:28:32.696Z,1.80
2019-05-11T19:31:03.915Z,2.27
2019-05-11T19:33:35.219Z,2.07
2019-05-11T19:36:07.896Z,2.10
2019-05-11T19:38:39.249Z,2.17
2019-05-11T19:41:10.540Z,2.10
2019-05-11T19:43:41.802Z,1.80
2019-05-11T19:46:13.103Z,2.03
2019-05-11T19:48:44.338Z,2.73
2019-05-11T19:51:15.625Z,2.40
2019-05-11T19:53:48.408Z,1.57
2019-05-11T19:56:19.772Z,2.40
2019-05-11T19:58:51.095Z,1.63
2019-05-11T20:01:22.417Z,1.80
2019-05-11T20:03:53.780Z,2.13
2019-05-11T20:06:25.035Z,1.80
2019-05-11T20:08:58.081Z,2.50
2019-05-11T20:11:29.535Z,2.33
2019-05-11T20:14:00.782Z,1.77
2019-05-11T20:16:32.045Z,1.90
2019-05-11T20:19:03.329Z,2.93
2019-05-11T20:21:34.601Z,1.80
2019-05-11T20:24:08.554Z,1.90
2019-05-11T20:26:41.536Z,2.13
2019-05-11T20:29:12.793Z,2.53
2019-05-11T20:31:44.182Z,3.00
2019-05-11T20:34:15.426Z,1.77
2019-05-11T20:36:48.976Z,1.80
2019-05-11T20:39:20.128Z,2.20
2019-05-11T20:41:51.389Z,2.10
2019-05-11T20:44:22.736Z,2.00
2019-05-11T20:46:54.047Z,1.83
2019-05-11T20:49:25.333Z,2.00
2019-05-11T20:51:59.739Z,1.60
2019-05-11T20:54:30.935Z,2.47
2019-05-11T20:57:02.133Z,2.30
2019-05-11T20:59:33.381Z,2.50
2019-05-11T21:02:04.814Z,2.40
2019-05-11T21:04:38.470Z,2.77
2019-05-11T21:07:08.943Z,2.50
2019-05-11T21:09:40.177Z,2.13
2019-05-11T21:12:13.553Z,2.57
2019-05-11T21:14:48.503Z,2.27
2019-05-11T21:17:19.854Z,2.27
2019-05-11T21:19:51.086Z,2.27
2019-05-11T21:22:22.345Z,1.90
2019-05-11T21:24:53.497Z,2.33
2019-05-11T21:27:24.713Z,2.43
2019-05-11T21:29:58.284Z,2.03
2019-05-11T21:32:28.903Z,2.23
2019-05-11T21:35:01.129Z,3.50
2019-05-11T21:37:32.367Z,2.40
2019-05-11T21:40:03.749Z,2.00
2019-05-11T21:42:34.972Z,2.53
2019-05-11T21:45:09.127Z,2.20
2019-05-11T21:47:39.872Z,2.10
2019-05-11T21:50:14.771Z,2.40
2019-05-11T21:52:48.276Z,2.37
2019-05-11T21:55:18.929Z,2.27
2019-05-11T21:57:50.183Z,2.20
2019-05-11T22:00:27.982Z,2.90
2019-05-11T22:02:58.674Z,2.93
2019-05-11T22:05:29.873Z,2.10
2019-05-11T22:08:01.041Z,2.03
2019-05-11T22:10:32.350Z,2.70
2019-05-11T22:13:03.685Z,2.47
2019-05-11T22:15:34.901Z,2.63
2019-05-11T22:18:08.032Z,2.43
2019-05-11T22:20:40.956Z,2.30
2019-05-11T22:23:11.888Z,2.57
2019-05-11T22:25:43.186Z,3.37
2019-05-11T22:28:14.348Z,2.87
2019-05-11T22:30:45.523Z,2.27
2019-05-11T22:33:17.755Z,2.40
2019-05-11T22:35:49.033Z,3.70
2019-05-11T22:38:20.264Z,2.43
2019-05-11T22:40:51.515Z,2.10
2019-05-11T22:43:22.692Z,2.73
2019-05-11T22:45:53.937Z,2.53
2019-05-11T22:48:25.135Z,2.40
2019-05-11T22:50:58.501Z,3.50
2019-05-11T22:53:43.623Z,2.73
2019-05-11T22:56:02.129Z,2.80
2019-05-11T22:58:33.391Z,2.70
2019-05-11T23:01:04.633Z,2.70
2019-05-11T23:03:38.188Z,2.93
2019-05-11T23:06:08.812Z,3.40
2019-05-11T23:08:40.050Z,2.73
2019-05-11T23:11:11.403Z,2.73
2019-05-11T23:13:42.614Z,2.67
2019-05-11T23:16:13.901Z,2.73
2019-05-11T23:18:45.112Z,3.73
2019-05-11T23:21:16.376Z,3.47
2019-05-11T23:23:47.896Z,3.47
2019-05-11T23:26:19.188Z,2.53
2019-05-11T23:28:50.455Z,2.80
2019-05-11T23:31:21.700Z,2.73
2019-05-11T23:33:52.905Z,3.80
2019-05-11T23:36:24.119Z,3.40
2019-05-11T23:38:55.379Z,2.80
2019-05-11T23:41:28.785Z,3.50
2019-05-11T23:43:59.501Z,3.73
2019-05-11T23:46:30.767Z,3.00
2019-05-11T23:49:02.026Z,4.93
2019-05-11T23:51:33.237Z,4.17
2019-05-11T23:54:04.520Z,3.17
2019-05-11T23:56:35.763Z,3.40
2019-05-11T23:59:08.290Z,3.20
